sensor_id;sensor_type;location;lat;lon;timestamp;P1;durP1;ratioP1;P2;durP2;ratioP2
12880;SDS011;6508;53.786;9.996;2023-04-03T00:02:31;3.40;;;3.10;;
12880;SDS011;6508;53.786;9.996;2023-04-03T00:05:53;3.97;;;2.73;;
12880;SDS011;6508;53.786;9.996;2023-04-03T00:09:13;4.23;;;3.03;;
12880;SDS011;6508;53.786;9.996;2023-04-03T00:12:35;3.23;;;2.70;;
12880;SDS011;6508;53.786;9.996;2023-04-03T00:15:55;3.80;;;3.17;;
12880;SDS011;6508;53.786;9.996;2023-04-03T00:19:15;4.47;;;3.10;;
12880;SDS011;6508;53.786;9.996;2023-04-03T00:22:38;3.53;;;3.10;;
12880;SDS011;6508;53.786;9.996;2023-04-03T00:25:58;4.47;;;2.53;;
12880;SDS011;6508;53.786;9.996;2023-04-03T00:29:19;3.17;;;2.87;;
12880;SDS011;6508;53.786;9.996;2023-04-03T00:32:41;6.80;;;2.70;;
12880;SDS011;6508;53.786;9.996;2023-04-03T00:36:05;4.83;;;2.80;;
12880;SDS011;6508;53.786;9.996;2023-04-03T00:39:27;2.57;;;2.37;;
12880;SDS011;6508;53.786;9.996;2023-04-03T00:42:48;6.30;;;2.87;;
12880;SDS011;6508;53.786;9.996;2023-04-03T00:46:08;5.57;;;2.83;;
12880;SDS011;6508;53.786;9.996;2023-04-03T00:49:29;4.50;;;2.80;;
12880;SDS011;6508;53.786;9.996;2023-04-03T00:52:50;4.40;;;2.67;;
12880;SDS011;6508;53.786;9.996;2023-04-03T00:56:13;4.87;;;2.70;;
12880;SDS011;6508;53.786;9.996;2023-04-03T00:59:35;2.97;;;2.50;;
12880;SDS011;6508;53.786;9.996;2023-04-03T01:02:57;5.30;;;2.83;;
12880;SDS011;6508;53.786;9.996;2023-04-03T01:06:20;3.67;;;2.90;;
12880;SDS011;6508;53.786;9.996;2023-04-03T01:09:43;5.40;;;2.93;;
12880;SDS011;6508;53.786;9.996;2023-04-03T01:13:17;3.33;;;2.67;;
12880;SDS011;6508;53.786;9.996;2023-04-03T01:16:38;4.10;;;2.60;;
12880;SDS011;6508;53.786;9.996;2023-04-03T01:20:11;3.70;;;2.93;;
12880;SDS011;6508;53.786;9.996;2023-04-03T01:24:04;5.33;;;2.53;;
12880;SDS011;6508;53.786;9.996;2023-04-03T01:27:27;4.57;;;2.70;;
12880;SDS011;6508;53.786;9.996;2023-04-03T01:30:50;4.20;;;2.80;;
12880;SDS011;6508;53.786;9.996;2023-04-03T01:34:20;4.43;;;2.63;;
12880;SDS011;6508;53.786;9.996;2023-04-03T01:37:41;4.77;;;2.57;;
12880;SDS011;6508;53.786;9.996;2023-04-03T01:41:01;4.03;;;2.60;;
12880;SDS011;6508;53.786;9.996;2023-04-03T01:44:32;5.67;;;3.10;;
12880;SDS011;6508;53.786;9.996;2023-04-03T01:47:54;5.17;;;2.60;;
12880;SDS011;6508;53.786;9.996;2023-04-03T01:51:15;4.33;;;2.80;;
12880;SDS011;6508;53.786;9.996;2023-04-03T01:54:36;6.10;;;3.20;;
12880;SDS011;6508;53.786;9.996;2023-04-03T01:57:56;5.73;;;2.63;;
12880;SDS011;6508;53.786;9.996;2023-04-03T02:01:17;4.07;;;3.10;;
12880;SDS011;6508;53.786;9.996;2023-04-03T02:04:40;6.37;;;2.77;;
12880;SDS011;6508;53.786;9.996;2023-04-03T02:08:00;5.60;;;2.80;;
12880;SDS011;6508;53.786;9.996;2023-04-03T02:11:21;6.93;;;2.73;;
12880;SDS011;6508;53.786;9.996;2023-04-03T02:14:42;6.40;;;2.50;;
12880;SDS011;6508;53.786;9.996;2023-04-03T02:18:04;3.60;;;2.90;;
12880;SDS011;6508;53.786;9.996;2023-04-03T02:21:27;3.73;;;2.20;;
12880;SDS011;6508;53.786;9.996;2023-04-03T02:24:47;3.80;;;2.90;;
12880;SDS011;6508;53.786;9.996;2023-04-03T02:28:07;4.30;;;2.93;;
12880;SDS011;6508;53.786;9.996;2023-04-03T02:31:29;5.93;;;2.90;;
12880;SDS011;6508;53.786;9.996;2023-04-03T02:34:50;3.03;;;2.53;;
12880;SDS011;6508;53.786;9.996;2023-04-03T02:38:11;6.10;;;2.73;;
12880;SDS011;6508;53.786;9.996;2023-04-03T02:41:34;3.70;;;2.60;;
12880;SDS011;6508;53.786;9.996;2023-04-03T02:44:54;6.33;;;2.90;;
12880;SDS011;6508;53.786;9.996;2023-04-03T02:48:15;4.30;;;2.80;;
12880;SDS011;6508;53.786;9.996;2023-04-03T02:51:36;6.17;;;2.80;;
12880;SDS011;6508;53.786;9.996;2023-04-03T02:54:58;4.97;;;2.97;;
12880;SDS011;6508;53.786;9.996;2023-04-03T02:58:18;3.43;;;2.90;;
12880;SDS011;6508;53.786;9.996;2023-04-03T03:01:40;5.70;;;3.40;;
12880;SDS011;6508;53.786;9.996;2023-04-03T03:05:00;4.33;;;2.90;;
12880;SDS011;6508;53.786;9.996;2023-04-03T03:08:27;2.90;;;2.60;;
12880;SDS011;6508;53.786;9.996;2023-04-03T03:11:49;7.03;;;3.10;;
12880;SDS011;6508;53.786;9.996;2023-04-03T03:15:10;5.03;;;3.20;;
12880;SDS011;6508;53.786;9.996;2023-04-03T03:18:31;3.93;;;3.00;;
12880;SDS011;6508;53.786;9.996;2023-04-03T03:21:52;6.13;;;2.90;;
12880;SDS011;6508;53.786;9.996;2023-04-03T03:25:12;5.20;;;3.40;;
12880;SDS011;6508;53.786;9.996;2023-04-03T03:28:35;6.97;;;3.37;;
12880;SDS011;6508;53.786;9.996;2023-04-03T03:31:56;6.13;;;3.43;;
12880;SDS011;6508;53.786;9.996;2023-04-03T03:35:16;6.70;;;3.97;;
12880;SDS011;6508;53.786;9.996;2023-04-03T03:38:37;6.53;;;3.23;;
12880;SDS011;6508;53.786;9.996;2023-04-03T03:41:57;7.43;;;3.90;;
12880;SDS011;6508;53.786;9.996;2023-04-03T03:45:19;3.87;;;3.20;;
12880;SDS011;6508;53.786;9.996;2023-04-03T03:48:40;5.40;;;3.20;;
12880;SDS011;6508;53.786;9.996;2023-04-03T03:52:00;4.83;;;3.53;;
12880;SDS011;6508;53.786;9.996;2023-04-03T03:55:21;7.13;;;3.70;;
12880;SDS011;6508;53.786;9.996;2023-04-03T03:58:43;5.50;;;3.53;;
12880;SDS011;6508;53.786;9.996;2023-04-03T04:02:05;9.17;;;3.93;;
12880;SDS011;6508;53.786;9.996;2023-04-03T04:05:29;8.13;;;3.57;;
12880;SDS011;6508;53.786;9.996;2023-04-03T04:08:51;5.90;;;3.17;;
12880;SDS011;6508;53.786;9.996;2023-04-03T04:12:12;8.20;;;3.97;;
12880;SDS011;6508;53.786;9.996;2023-04-03T04:15:33;7.40;;;3.80;;
12880;SDS011;6508;53.786;9.996;2023-04-03T04:18:58;4.87;;;3.33;;
12880;SDS011;6508;53.786;9.996;2023-04-03T04:22:18;7.77;;;3.70;;
12880;SDS011;6508;53.786;9.996;2023-04-03T04:25:39;7.30;;;3.43;;
12880;SDS011;6508;53.786;9.996;2023-04-03T04:29:00;8.60;;;3.50;;
12880;SDS011;6508;53.786;9.996;2023-04-03T04:32:22;6.80;;;4.10;;
12880;SDS011;6508;53.786;9.996;2023-04-03T04:35:46;4.53;;;3.90;;
12880;SDS011;6508;53.786;9.996;2023-04-03T04:39:07;8.47;;;4.00;;
12880;SDS011;6508;53.786;9.996;2023-04-03T04:42:28;7.17;;;3.80;;
12880;SDS011;6508;53.786;9.996;2023-04-03T04:45:59;7.47;;;4.30;;
12880;SDS011;6508;53.786;9.996;2023-04-03T04:49:20;6.07;;;4.30;;
12880;SDS011;6508;53.786;9.996;2023-04-03T04:52:42;5.50;;;4.73;;
12880;SDS011;6508;53.786;9.996;2023-04-03T04:56:03;7.17;;;4.70;;
12880;SDS011;6508;53.786;9.996;2023-04-03T04:59:25;5.40;;;4.50;;
12880;SDS011;6508;53.786;9.996;2023-04-03T05:02:46;5.87;;;5.07;;
12880;SDS011;6508;53.786;9.996;2023-04-03T05:06:07;7.60;;;4.67;;
12880;SDS011;6508;53.786;9.996;2023-04-03T05:09:31;9.93;;;4.73;;
12880;SDS011;6508;53.786;9.996;2023-04-03T05:12:52;6.80;;;4.90;;
12880;SDS011;6508;53.786;9.996;2023-04-03T05:16:12;7.53;;;5.80;;
12880;SDS011;6508;53.786;9.996;2023-04-03T05:19:36;11.57;;;5.67;;
12880;SDS011;6508;53.786;9.996;2023-04-03T05:22:58;9.80;;;5.13;;
12880;SDS011;6508;53.786;9.996;2023-04-03T05:26:20;8.03;;;5.17;;
12880;SDS011;6508;53.786;9.996;2023-04-03T05:29:44;12.20;;;5.17;;
12880;SDS011;6508;53.786;9.996;2023-04-03T05:33:05;6.47;;;4.93;;
12880;SDS011;6508;53.786;9.996;2023-04-03T05:36:28;6.40;;;5.07;;
12880;SDS011;6508;53.786;9.996;2023-04-03T05:39:50;7.37;;;5.93;;
12880;SDS011;6508;53.786;9.996;2023-04-03T05:43:13;8.70;;;5.30;;
12880;SDS011;6508;53.786;9.996;2023-04-03T05:46:33;7.20;;;5.17;;
12880;SDS011;6508;53.786;9.996;2023-04-03T05:49:54;7.97;;;5.23;;
12880;SDS011;6508;53.786;9.996;2023-04-03T05:53:21;9.40;;;5.70;;
12880;SDS011;6508;53.786;9.996;2023-04-03T05:56:44;8.00;;;5.90;;
12880;SDS011;6508;53.786;9.996;2023-04-03T06:00:07;8.13;;;5.60;;
12880;SDS011;6508;53.786;9.996;2023-04-03T06:03:29;10.03;;;6.03;;
12880;SDS011;6508;53.786;9.996;2023-04-03T06:06:50;9.80;;;6.07;;
12880;SDS011;6508;53.786;9.996;2023-04-03T06:10:12;10.03;;;6.83;;
12880;SDS011;6508;53.786;9.996;2023-04-03T06:13:32;13.10;;;7.60;;
12880;SDS011;6508;53.786;9.996;2023-04-03T06:16:54;15.90;;;10.20;;
12880;SDS011;6508;53.786;9.996;2023-04-03T06:20:14;22.13;;;13.93;;
12880;SDS011;6508;53.786;9.996;2023-04-03T06:23:35;10.73;;;9.20;;
12880;SDS011;6508;53.786;9.996;2023-04-03T06:26:56;7.07;;;6.33;;
12880;SDS011;6508;53.786;9.996;2023-04-03T06:30:17;6.67;;;5.20;;
12880;SDS011;6508;53.786;9.996;2023-04-03T06:33:39;6.37;;;5.47;;
12880;SDS011;6508;53.786;9.996;2023-04-03T06:36:59;5.37;;;3.87;;
12880;SDS011;6508;53.786;9.996;2023-04-03T06:40:21;4.47;;;3.63;;
12880;SDS011;6508;53.786;9.996;2023-04-03T06:43:43;4.67;;;3.87;;
12880;SDS011;6508;53.786;9.996;2023-04-03T06:47:03;4.13;;;3.35;;
12880;SDS011;6508;53.786;9.996;2023-04-03T06:50:25;6.50;;;3.95;;
12880;SDS011;6508;53.786;9.996;2023-04-03T06:53:47;5.60;;;4.28;;
12880;SDS011;6508;53.786;9.996;2023-04-03T06:57:07;4.88;;;4.47;;
12880;SDS011;6508;53.786;9.996;2023-04-03T07:00:28;5.90;;;5.50;;
12880;SDS011;6508;53.786;9.996;2023-04-03T07:03:49;7.38;;;4.60;;
12880;SDS011;6508;53.786;9.996;2023-04-03T07:07:10;4.97;;;4.50;;
12880;SDS011;6508;53.786;9.996;2023-04-03T07:10:31;4.45;;;4.10;;
12880;SDS011;6508;53.786;9.996;2023-04-03T07:13:52;3.85;;;3.53;;
12880;SDS011;6508;53.786;9.996;2023-04-03T07:17:13;4.10;;;3.33;;
12880;SDS011;6508;53.786;9.996;2023-04-03T07:20:33;3.72;;;3.40;;
12880;SDS011;6508;53.786;9.996;2023-04-03T07:23:55;3.42;;;3.13;;
12880;SDS011;6508;53.786;9.996;2023-04-03T07:27:15;3.20;;;3.00;;
12880;SDS011;6508;53.786;9.996;2023-04-03T07:30:41;3.45;;;3.08;;
12880;SDS011;6508;53.786;9.996;2023-04-03T07:34:02;4.57;;;4.10;;
12880;SDS011;6508;53.786;9.996;2023-04-03T07:37:22;3.10;;;2.90;;
12880;SDS011;6508;53.786;9.996;2023-04-03T07:40:46;3.40;;;3.20;;
12880;SDS011;6508;53.786;9.996;2023-04-03T07:44:07;3.35;;;3.10;;
12880;SDS011;6508;53.786;9.996;2023-04-03T07:47:27;3.08;;;2.88;;
12880;SDS011;6508;53.786;9.996;2023-04-03T07:50:49;3.38;;;3.08;;
12880;SDS011;6508;53.786;9.996;2023-04-03T07:54:09;3.63;;;3.42;;
12880;SDS011;6508;53.786;9.996;2023-04-03T07:57:32;3.53;;;3.30;;
12880;SDS011;6508;53.786;9.996;2023-04-03T08:00:52;4.13;;;3.80;;
12880;SDS011;6508;53.786;9.996;2023-04-03T08:04:13;3.50;;;3.28;;
12880;SDS011;6508;53.786;9.996;2023-04-03T08:07:34;4.00;;;3.70;;
12880;SDS011;6508;53.786;9.996;2023-04-03T08:10:59;3.65;;;3.45;;
12880;SDS011;6508;53.786;9.996;2023-04-03T08:14:21;5.05;;;4.20;;
12880;SDS011;6508;53.786;9.996;2023-04-03T08:17:42;4.25;;;4.15;;
12880;SDS011;6508;53.786;9.996;2023-04-03T08:21:05;4.00;;;3.70;;
12880;SDS011;6508;53.786;9.996;2023-04-03T08:24:27;4.50;;;4.18;;
12880;SDS011;6508;53.786;9.996;2023-04-03T08:27:47;3.42;;;3.22;;
12880;SDS011;6508;53.786;9.996;2023-04-03T08:31:10;3.60;;;3.40;;
12880;SDS011;6508;53.786;9.996;2023-04-03T08:34:31;3.90;;;3.70;;
12880;SDS011;6508;53.786;9.996;2023-04-03T08:37:51;4.55;;;4.28;;
12880;SDS011;6508;53.786;9.996;2023-04-03T08:41:14;5.07;;;4.68;;
12880;SDS011;6508;53.786;9.996;2023-04-03T08:44:39;4.30;;;4.00;;
12880;SDS011;6508;53.786;9.996;2023-04-03T08:48:08;4.63;;;4.40;;
12880;SDS011;6508;53.786;9.996;2023-04-03T08:51:31;4.93;;;4.70;;
12880;SDS011;6508;53.786;9.996;2023-04-03T08:54:55;5.28;;;5.07;;
12880;SDS011;6508;53.786;9.996;2023-04-03T08:58:16;5.15;;;4.95;;
12880;SDS011;6508;53.786;9.996;2023-04-03T09:01:39;5.25;;;4.90;;
12880;SDS011;6508;53.786;9.996;2023-04-03T09:05:05;5.07;;;4.80;;
12880;SDS011;6508;53.786;9.996;2023-04-03T09:08:31;6.00;;;5.70;;
12880;SDS011;6508;53.786;9.996;2023-04-03T09:12:00;5.55;;;5.05;;
12880;SDS011;6508;53.786;9.996;2023-04-03T09:15:25;4.65;;;4.43;;
12880;SDS011;6508;53.786;9.996;2023-04-03T09:18:56;4.70;;;4.50;;
12880;SDS011;6508;53.786;9.996;2023-04-03T09:22:21;6.35;;;6.15;;
12880;SDS011;6508;53.786;9.996;2023-04-03T09:25:44;7.07;;;6.68;;
12880;SDS011;6508;53.786;9.996;2023-04-03T09:29:07;6.63;;;6.43;;
12880;SDS011;6508;53.786;9.996;2023-04-03T09:32:29;6.30;;;6.10;;
12880;SDS011;6508;53.786;9.996;2023-04-03T09:35:50;6.50;;;6.20;;
12880;SDS011;6508;53.786;9.996;2023-04-03T09:39:15;7.20;;;6.90;;
12880;SDS011;6508;53.786;9.996;2023-04-03T09:42:54;7.15;;;6.93;;
12880;SDS011;6508;53.786;9.996;2023-04-03T09:46:29;7.30;;;6.90;;
12880;SDS011;6508;53.786;9.996;2023-04-03T09:49:52;7.15;;;6.95;;
12880;SDS011;6508;53.786;9.996;2023-04-03T09:53:33;7.18;;;6.93;;
12880;SDS011;6508;53.786;9.996;2023-04-03T09:57:01;6.97;;;6.68;;
12880;SDS011;6508;53.786;9.996;2023-04-03T10:00:23;6.30;;;5.90;;
12880;SDS011;6508;53.786;9.996;2023-04-03T10:03:49;7.35;;;6.93;;
12880;SDS011;6508;53.786;9.996;2023-04-03T10:07:35;6.05;;;5.60;;
12880;SDS011;6508;53.786;9.996;2023-04-03T10:11:14;5.97;;;5.72;;
12880;SDS011;6508;53.786;9.996;2023-04-03T10:14:38;6.55;;;6.18;;
12880;SDS011;6508;53.786;9.996;2023-04-03T10:18:00;5.70;;;5.43;;
12880;SDS011;6508;53.786;9.996;2023-04-03T10:21:28;6.68;;;6.38;;
12880;SDS011;6508;53.786;9.996;2023-04-03T10:24:52;6.78;;;6.25;;
12880;SDS011;6508;53.786;9.996;2023-04-03T10:28:19;6.60;;;6.15;;
12880;SDS011;6508;53.786;9.996;2023-04-03T10:31:58;6.78;;;6.40;;
12880;SDS011;6508;53.786;9.996;2023-04-03T10:35:25;7.38;;;7.00;;
12880;SDS011;6508;53.786;9.996;2023-04-03T10:38:54;5.38;;;5.18;;
12880;SDS011;6508;53.786;9.996;2023-04-03T10:42:22;5.55;;;5.35;;
12880;SDS011;6508;53.786;9.996;2023-04-03T10:45:49;5.50;;;5.30;;
12880;SDS011;6508;53.786;9.996;2023-04-03T10:49:20;5.57;;;5.38;;
12880;SDS011;6508;53.786;9.996;2023-04-03T10:52:52;6.18;;;5.97;;
12880;SDS011;6508;53.786;9.996;2023-04-03T10:56:18;5.63;;;5.32;;
12880;SDS011;6508;53.786;9.996;2023-04-03T10:59:43;6.15;;;5.93;;
12880;SDS011;6508;53.786;9.996;2023-04-03T11:03:06;6.20;;;5.90;;
12880;SDS011;6508;53.786;9.996;2023-04-03T11:06:33;6.20;;;5.95;;
12880;SDS011;6508;53.786;9.996;2023-04-03T11:09:55;5.97;;;5.68;;
12880;SDS011;6508;53.786;9.996;2023-04-03T11:13:18;6.03;;;5.82;;
12880;SDS011;6508;53.786;9.996;2023-04-03T11:16:45;5.80;;;5.60;;
12880;SDS011;6508;53.786;9.996;2023-04-03T11:20:10;4.97;;;4.88;;
12880;SDS011;6508;53.786;9.996;2023-04-03T11:23:35;5.75;;;5.40;;
12880;SDS011;6508;53.786;9.996;2023-04-03T11:26:57;5.47;;;5.35;;
12880;SDS011;6508;53.786;9.996;2023-04-03T11:30:22;6.10;;;5.90;;
12880;SDS011;6508;53.786;9.996;2023-04-03T11:33:52;6.00;;;5.80;;
12880;SDS011;6508;53.786;9.996;2023-04-03T11:37:17;5.82;;;5.50;;
12880;SDS011;6508;53.786;9.996;2023-04-03T11:40:45;5.60;;;5.40;;
12880;SDS011;6508;53.786;9.996;2023-04-03T11:44:24;5.78;;;5.47;;
12880;SDS011;6508;53.786;9.996;2023-04-03T11:48:01;6.30;;;6.10;;
12880;SDS011;6508;53.786;9.996;2023-04-03T11:51:40;6.28;;;5.90;;
12880;SDS011;6508;53.786;9.996;2023-04-03T11:59:19;6.05;;;5.75;;
12880;SDS011;6508;53.786;9.996;2023-04-03T12:10:55;6.13;;;5.90;;
12880;SDS011;6508;53.786;9.996;2023-04-03T12:14:52;6.30;;;6.00;;
12880;SDS011;6508;53.786;9.996;2023-04-03T12:22:15;6.13;;;5.93;;
12880;SDS011;6508;53.786;9.996;2023-04-03T12:25:50;6.80;;;6.40;;
12880;SDS011;6508;53.786;9.996;2023-04-03T12:29:15;7.32;;;7.03;;
12880;SDS011;6508;53.786;9.996;2023-04-03T12:32:52;6.32;;;6.13;;
12880;SDS011;6508;53.786;9.996;2023-04-03T12:36:26;6.32;;;6.13;;
12880;SDS011;6508;53.786;9.996;2023-04-03T12:39:54;6.68;;;6.38;;
12880;SDS011;6508;53.786;9.996;2023-04-03T12:47:08;6.60;;;6.30;;
12880;SDS011;6508;53.786;9.996;2023-04-03T12:50:38;6.15;;;5.93;;
12880;SDS011;6508;53.786;9.996;2023-04-03T12:54:02;6.50;;;6.20;;
12880;SDS011;6508;53.786;9.996;2023-04-03T12:57:24;6.28;;;5.90;;
12880;SDS011;6508;53.786;9.996;2023-04-03T13:00:58;6.55;;;6.25;;
12880;SDS011;6508;53.786;9.996;2023-04-03T13:04:22;6.18;;;5.88;;
12880;SDS011;6508;53.786;9.996;2023-04-03T13:07:49;5.90;;;5.70;;
12880;SDS011;6508;53.786;9.996;2023-04-03T13:11:15;6.63;;;6.22;;
12880;SDS011;6508;53.786;9.996;2023-04-03T13:14:37;6.50;;;6.20;;
12880;SDS011;6508;53.786;9.996;2023-04-03T13:18:20;6.15;;;5.95;;
12880;SDS011;6508;53.786;9.996;2023-04-03T13:21:43;5.70;;;5.40;;
12880;SDS011;6508;53.786;9.996;2023-04-03T13:25:09;6.05;;;5.75;;
12880;SDS011;6508;53.786;9.996;2023-04-03T13:28:31;6.18;;;5.90;;
12880;SDS011;6508;53.786;9.996;2023-04-03T13:31:57;6.07;;;5.78;;
12880;SDS011;6508;53.786;9.996;2023-04-03T13:35:26;5.95;;;5.55;;
12880;SDS011;6508;53.786;9.996;2023-04-03T13:38:57;6.55;;;6.15;;
12880;SDS011;6508;53.786;9.996;2023-04-03T13:42:26;6.53;;;6.15;;
12880;SDS011;6508;53.786;9.996;2023-04-03T13:45:55;6.47;;;6.07;;
12880;SDS011;6508;53.786;9.996;2023-04-03T13:49:20;7.10;;;6.55;;
12880;SDS011;6508;53.786;9.996;2023-04-03T13:52:44;6.75;;;6.35;;
12880;SDS011;6508;53.786;9.996;2023-04-03T13:56:13;6.20;;;5.90;;
12880;SDS011;6508;53.786;9.996;2023-04-03T13:59:42;6.65;;;6.13;;
12880;SDS011;6508;53.786;9.996;2023-04-03T14:03:12;5.95;;;5.65;;
12880;SDS011;6508;53.786;9.996;2023-04-03T14:06:38;5.72;;;5.53;;
12880;SDS011;6508;53.786;9.996;2023-04-03T14:09:58;5.82;;;5.60;;
12880;SDS011;6508;53.786;9.996;2023-04-03T14:13:19;5.68;;;5.38;;
12880;SDS011;6508;53.786;9.996;2023-04-03T14:16:43;6.25;;;5.75;;
12880;SDS011;6508;53.786;9.996;2023-04-03T14:20:04;5.93;;;5.55;;
12880;SDS011;6508;53.786;9.996;2023-04-03T14:23:26;6.10;;;5.80;;
12880;SDS011;6508;53.786;9.996;2023-04-03T14:26:46;6.00;;;5.75;;
12880;SDS011;6508;53.786;9.996;2023-04-03T14:30:09;5.60;;;5.40;;
12880;SDS011;6508;53.786;9.996;2023-04-03T14:33:33;5.20;;;4.97;;
12880;SDS011;6508;53.786;9.996;2023-04-03T14:36:53;5.35;;;5.05;;
12880;SDS011;6508;53.786;9.996;2023-04-03T14:40:15;6.22;;;5.82;;
12880;SDS011;6508;53.786;9.996;2023-04-03T14:43:42;5.78;;;5.57;;
12880;SDS011;6508;53.786;9.996;2023-04-03T14:47:03;6.38;;;5.95;;
12880;SDS011;6508;53.786;9.996;2023-04-03T14:50:26;5.93;;;5.72;;
12880;SDS011;6508;53.786;9.996;2023-04-03T14:53:47;5.45;;;5.15;;
12880;SDS011;6508;53.786;9.996;2023-04-03T14:57:08;5.60;;;5.38;;
12880;SDS011;6508;53.786;9.996;2023-04-03T15:00:29;5.30;;;5.00;;
12880;SDS011;6508;53.786;9.996;2023-04-03T15:03:50;5.25;;;5.05;;
12880;SDS011;6508;53.786;9.996;2023-04-03T15:07:13;6.40;;;6.00;;
12880;SDS011;6508;53.786;9.996;2023-04-03T15:10:35;6.40;;;6.00;;
12880;SDS011;6508;53.786;9.996;2023-04-03T15:13:56;6.43;;;5.93;;
12880;SDS011;6508;53.786;9.996;2023-04-03T15:17:27;5.45;;;5.18;;
12880;SDS011;6508;53.786;9.996;2023-04-03T15:20:48;6.78;;;6.10;;
12880;SDS011;6508;53.786;9.996;2023-04-03T15:24:10;7.00;;;6.65;;
12880;SDS011;6508;53.786;9.996;2023-04-03T15:27:32;6.60;;;6.30;;
12880;SDS011;6508;53.786;9.996;2023-04-03T15:30:54;5.97;;;5.70;;
12880;SDS011;6508;53.786;9.996;2023-04-03T15:34:16;6.75;;;6.55;;
12880;SDS011;6508;53.786;9.996;2023-04-03T15:37:36;7.10;;;6.55;;
12880;SDS011;6508;53.786;9.996;2023-04-03T15:40:58;7.15;;;6.90;;
12880;SDS011;6508;53.786;9.996;2023-04-03T15:44:20;6.93;;;6.63;;
12880;SDS011;6508;53.786;9.996;2023-04-03T15:47:40;7.03;;;6.72;;
12880;SDS011;6508;53.786;9.996;2023-04-03T15:51:03;6.90;;;6.70;;
12880;SDS011;6508;53.786;9.996;2023-04-03T15:54:25;6.90;;;6.68;;
12880;SDS011;6508;53.786;9.996;2023-04-03T15:57:47;7.53;;;7.03;;
12880;SDS011;6508;53.786;9.996;2023-04-03T16:01:08;7.15;;;6.93;;
12880;SDS011;6508;53.786;9.996;2023-04-03T16:04:29;6.10;;;5.80;;
12880;SDS011;6508;53.786;9.996;2023-04-03T16:07:50;6.35;;;5.90;;
12880;SDS011;6508;53.786;9.996;2023-04-03T16:11:11;6.20;;;5.90;;
12880;SDS011;6508;53.786;9.996;2023-04-03T16:14:33;6.15;;;5.85;;
12880;SDS011;6508;53.786;9.996;2023-04-03T16:17:53;6.53;;;6.00;;
12880;SDS011;6508;53.786;9.996;2023-04-03T16:21:15;5.78;;;5.47;;
12880;SDS011;6508;53.786;9.996;2023-04-03T16:24:35;5.90;;;5.50;;
12880;SDS011;6508;53.786;9.996;2023-04-03T16:27:57;6.28;;;5.85;;
12880;SDS011;6508;53.786;9.996;2023-04-03T16:31:19;5.63;;;5.38;;
12880;SDS011;6508;53.786;9.996;2023-04-03T16:34:39;6.03;;;5.70;;
12880;SDS011;6508;53.786;9.996;2023-04-03T16:38:00;5.43;;;5.15;;
12880;SDS011;6508;53.786;9.996;2023-04-03T16:41:20;5.05;;;4.85;;
12880;SDS011;6508;53.786;9.996;2023-04-03T16:44:41;5.60;;;5.03;;
12880;SDS011;6508;53.786;9.996;2023-04-03T16:48:04;5.00;;;4.80;;
12880;SDS011;6508;53.786;9.996;2023-04-03T16:51:24;7.03;;;6.47;;
12880;SDS011;6508;53.786;9.996;2023-04-03T16:54:45;4.53;;;4.32;;
12880;SDS011;6508;53.786;9.996;2023-04-03T16:58:06;5.30;;;4.95;;
12880;SDS011;6508;53.786;9.996;2023-04-03T17:01:26;6.45;;;6.15;;
12880;SDS011;6508;53.786;9.996;2023-04-03T17:04:49;6.05;;;5.68;;
12880;SDS011;6508;53.786;9.996;2023-04-03T17:08:10;5.70;;;5.40;;
12880;SDS011;6508;53.786;9.996;2023-04-03T17:11:30;6.03;;;5.63;;
12880;SDS011;6508;53.786;9.996;2023-04-03T17:14:51;6.15;;;5.60;;
12880;SDS011;6508;53.786;9.996;2023-04-03T17:18:11;5.10;;;4.80;;
12880;SDS011;6508;53.786;9.996;2023-04-03T17:21:33;5.63;;;4.93;;
12880;SDS011;6508;53.786;9.996;2023-04-03T17:24:54;7.63;;;7.20;;
12880;SDS011;6508;53.786;9.996;2023-04-03T17:28:14;5.90;;;5.30;;
12880;SDS011;6508;53.786;9.996;2023-04-03T17:31:35;5.32;;;5.03;;
12880;SDS011;6508;53.786;9.996;2023-04-03T17:34:56;5.40;;;5.00;;
12880;SDS011;6508;53.786;9.996;2023-04-03T17:38:18;5.32;;;5.07;;
12880;SDS011;6508;53.786;9.996;2023-04-03T17:41:39;5.38;;;5.07;;
12880;SDS011;6508;53.786;9.996;2023-04-03T17:44:59;4.82;;;4.43;;
12880;SDS011;6508;53.786;9.996;2023-04-03T17:48:20;4.97;;;4.60;;
12880;SDS011;6508;53.786;9.996;2023-04-03T17:51:40;6.65;;;5.07;;
12880;SDS011;6508;53.786;9.996;2023-04-03T17:55:03;5.43;;;5.00;;
12880;SDS011;6508;53.786;9.996;2023-04-03T17:58:24;5.20;;;4.95;;
12880;SDS011;6508;53.786;9.996;2023-04-03T18:01:45;5.50;;;5.03;;
12880;SDS011;6508;53.786;9.996;2023-04-03T18:05:05;5.05;;;4.75;;
12880;SDS011;6508;53.786;9.996;2023-04-03T18:08:28;5.38;;;5.07;;
12880;SDS011;6508;53.786;9.996;2023-04-03T18:11:51;6.50;;;5.00;;
12880;SDS011;6508;53.786;9.996;2023-04-03T18:15:12;6.03;;;5.70;;
12880;SDS011;6508;53.786;9.996;2023-04-03T18:18:33;6.40;;;6.10;;
12880;SDS011;6508;53.786;9.996;2023-04-03T18:21:56;7.78;;;7.13;;
12880;SDS011;6508;53.786;9.996;2023-04-03T18:25:17;6.93;;;6.65;;
12880;SDS011;6508;53.786;9.996;2023-04-03T18:28:41;8.85;;;7.18;;
12880;SDS011;6508;53.786;9.996;2023-04-03T18:32:03;7.55;;;7.25;;
12880;SDS011;6508;53.786;9.996;2023-04-03T18:35:26;7.33;;;6.93;;
12880;SDS011;6508;53.786;9.996;2023-04-03T18:38:46;8.10;;;7.60;;
12880;SDS011;6508;53.786;9.996;2023-04-03T18:42:07;10.13;;;9.23;;
12880;SDS011;6508;53.786;9.996;2023-04-03T18:45:30;9.80;;;9.00;;
12880;SDS011;6508;53.786;9.996;2023-04-03T18:48:51;8.27;;;7.60;;
12880;SDS011;6508;53.786;9.996;2023-04-03T18:52:12;7.30;;;6.90;;
12880;SDS011;6508;53.786;9.996;2023-04-03T18:55:32;7.18;;;6.63;;
12880;SDS011;6508;53.786;9.996;2023-04-03T18:58:53;7.87;;;7.37;;
12880;SDS011;6508;53.786;9.996;2023-04-03T19:02:15;7.37;;;6.87;;
12880;SDS011;6508;53.786;9.996;2023-04-03T19:05:36;7.82;;;7.32;;
12880;SDS011;6508;53.786;9.996;2023-04-03T19:08:57;7.20;;;6.80;;
12880;SDS011;6508;53.786;9.996;2023-04-03T19:12:17;7.78;;;7.18;;
12880;SDS011;6508;53.786;9.996;2023-04-03T19:15:38;7.80;;;7.40;;
12880;SDS011;6508;53.786;9.996;2023-04-03T19:19:00;7.17;;;6.77;;
12880;SDS011;6508;53.786;9.996;2023-04-03T19:22:21;6.83;;;6.43;;
12880;SDS011;6508;53.786;9.996;2023-04-03T19:25:43;7.67;;;6.97;;
12880;SDS011;6508;53.786;9.996;2023-04-03T19:29:03;6.87;;;6.40;;
12880;SDS011;6508;53.786;9.996;2023-04-03T19:32:24;7.10;;;6.70;;
12880;SDS011;6508;53.786;9.996;2023-04-03T19:35:46;7.13;;;6.63;;
12880;SDS011;6508;53.786;9.996;2023-04-03T19:39:07;8.30;;;7.70;;
12880;SDS011;6508;53.786;9.996;2023-04-03T19:42:28;8.00;;;7.40;;
12880;SDS011;6508;53.786;9.996;2023-04-03T19:45:49;9.43;;;7.30;;
12880;SDS011;6508;53.786;9.996;2023-04-03T19:49:17;8.33;;;7.73;;
12880;SDS011;6508;53.786;9.996;2023-04-03T19:52:38;8.40;;;6.90;;
12880;SDS011;6508;53.786;9.996;2023-04-03T19:55:59;8.37;;;7.37;;
12880;SDS011;6508;53.786;9.996;2023-04-03T19:59:19;8.00;;;7.27;;
12880;SDS011;6508;53.786;9.996;2023-04-03T20:02:40;8.80;;;8.10;;
12880;SDS011;6508;53.786;9.996;2023-04-03T20:06:01;9.83;;;8.90;;
12880;SDS011;6508;53.786;9.996;2023-04-03T20:09:23;8.30;;;7.63;;
12880;SDS011;6508;53.786;9.996;2023-04-03T20:12:43;7.50;;;7.00;;
12880;SDS011;6508;53.786;9.996;2023-04-03T20:16:04;6.60;;;6.10;;
12880;SDS011;6508;53.786;9.996;2023-04-03T20:19:25;7.30;;;6.70;;
12880;SDS011;6508;53.786;9.996;2023-04-03T20:22:45;10.00;;;9.00;;
12880;SDS011;6508;53.786;9.996;2023-04-03T20:26:07;10.37;;;9.33;;
12880;SDS011;6508;53.786;9.996;2023-04-03T20:29:28;10.70;;;9.60;;
12880;SDS011;6508;53.786;9.996;2023-04-03T20:32:48;8.20;;;7.50;;
12880;SDS011;6508;53.786;9.996;2023-04-03T20:36:09;9.13;;;8.37;;
12880;SDS011;6508;53.786;9.996;2023-04-03T20:39:29;8.80;;;8.10;;
12880;SDS011;6508;53.786;9.996;2023-04-03T20:42:51;7.93;;;7.43;;
12880;SDS011;6508;53.786;9.996;2023-04-03T20:46:13;8.20;;;7.57;;
12880;SDS011;6508;53.786;9.996;2023-04-03T20:49:34;7.23;;;6.83;;
12880;SDS011;6508;53.786;9.996;2023-04-03T20:52:54;10.97;;;9.93;;
12880;SDS011;6508;53.786;9.996;2023-04-03T20:56:16;11.60;;;10.63;;
12880;SDS011;6508;53.786;9.996;2023-04-03T20:59:39;10.70;;;9.60;;
12880;SDS011;6508;53.786;9.996;2023-04-03T21:02:59;7.50;;;7.00;;